sensor_id;sensor_type;location;lat;lon;timestamp;P1;durP1;ratioP1;P2;durP2;ratioP2
29196;SDS011;62796;42.654;23.316;2022-09-09T00:00:27;24.17;;;11.45;;
29196;SDS011;62796;42.654;23.316;2022-09-09T00:08:40;17.23;;;11.68;;
29196;SDS011;62796;42.654;23.316;2022-09-09T00:11:18;13.40;;;11.20;;
29196;SDS011;62796;42.654;23.316;2022-09-09T00:13:54;14.18;;;10.80;;
29196;SDS011;62796;42.654;23.316;2022-09-09T00:16:24;16.17;;;10.77;;
29196;SDS011;62796;42.654;23.316;2022-09-09T00:21:37;14.65;;;10.57;;
29196;SDS011;62796;42.654;23.316;2022-09-09T00:27:08;12.63;;;10.73;;
29196;SDS011;62796;42.654;23.316;2022-09-09T00:29:43;12.90;;;9.82;;
29196;SDS011;62796;42.654;23.316;2022-09-09T00:32:18;15.48;;;10.63;;
29196;SDS011;62796;42.654;23.316;2022-09-09T00:37:19;16.10;;;11.02;;
29196;SDS011;62796;42.654;23.316;2022-09-09T00:39:47;14.05;;;10.35;;
29196;SDS011;62796;42.654;23.316;2022-09-09T00:45:01;12.05;;;10.45;;
29196;SDS011;62796;42.654;23.316;2022-09-09T00:47:46;13.98;;;10.82;;
29196;SDS011;62796;42.654;23.316;2022-09-09T00:52:56;19.38;;;10.70;;
29196;SDS011;62796;42.654;23.316;2022-09-09T00:58:13;11.32;;;10.00;;
29196;SDS011;62796;42.654;23.316;2022-09-09T01:01:23;11.85;;;10.02;;
29196;SDS011;62796;42.654;23.316;2022-09-09T01:04:08;14.82;;;10.82;;
29196;SDS011;62796;42.654;23.316;2022-09-09T01:06:32;14.45;;;11.10;;
29196;SDS011;62796;42.654;23.316;2022-09-09T01:17:15;16.70;;;10.85;;
29196;SDS011;62796;42.654;23.316;2022-09-09T01:27:43;19.10;;;10.95;;
29196;SDS011;62796;42.654;23.316;2022-09-09T01:30:12;16.15;;;11.15;;
29196;SDS011;62796;42.654;23.316;2022-09-09T01:32:44;16.42;;;11.05;;
29196;SDS011;62796;42.654;23.316;2022-09-09T01:37:43;14.65;;;10.90;;
29196;SDS011;62796;42.654;23.316;2022-09-09T01:40:09;15.05;;;11.95;;
29196;SDS011;62796;42.654;23.316;2022-09-09T01:42:34;16.42;;;11.85;;
29196;SDS011;62796;42.654;23.316;2022-09-09T01:45:00;16.48;;;11.70;;
29196;SDS011;62796;42.654;23.316;2022-09-09T01:47:25;17.00;;;10.90;;
29196;SDS011;62796;42.654;23.316;2022-09-09T01:49:51;19.70;;;12.05;;
29196;SDS011;62796;42.654;23.316;2022-09-09T01:52:16;16.17;;;11.02;;
29196;SDS011;62796;42.654;23.316;2022-09-09T01:54:42;15.10;;;11.45;;
29196;SDS011;62796;42.654;23.316;2022-09-09T01:57:27;13.05;;;11.70;;
29196;SDS011;62796;42.654;23.316;2022-09-09T02:00:08;13.52;;;10.73;;
29196;SDS011;62796;42.654;23.316;2022-09-09T02:08:07;15.30;;;11.73;;
29196;SDS011;62796;42.654;23.316;2022-09-09T02:10:40;15.13;;;11.38;;
29196;SDS011;62796;42.654;23.316;2022-09-09T02:13:14;17.80;;;11.90;;
29196;SDS011;62796;42.654;23.316;2022-09-09T02:15:52;14.30;;;11.32;;
29196;SDS011;62796;42.654;23.316;2022-09-09T02:18:20;16.95;;;11.38;;
29196;SDS011;62796;42.654;23.316;2022-09-09T02:20:54;13.10;;;11.60;;
29196;SDS011;62796;42.654;23.316;2022-09-09T02:23:22;13.40;;;11.65;;
29196;SDS011;62796;42.654;23.316;2022-09-09T02:25:49;16.80;;;11.35;;
29196;SDS011;62796;42.654;23.316;2022-09-09T02:28:18;17.27;;;11.63;;
29196;SDS011;62796;42.654;23.316;2022-09-09T02:30:46;17.83;;;11.30;;
29196;SDS011;62796;42.654;23.316;2022-09-09T02:33:20;13.05;;;11.25;;
29196;SDS011;62796;42.654;23.316;2022-09-09T02:35:50;16.90;;;11.07;;
29196;SDS011;62796;42.654;23.316;2022-09-09T02:38:16;14.52;;;10.93;;
29196;SDS011;62796;42.654;23.316;2022-09-09T02:40:44;20.30;;;12.27;;
29196;SDS011;62796;42.654;23.316;2022-09-09T02:43:10;15.38;;;11.45;;
29196;SDS011;62796;42.654;23.316;2022-09-09T02:45:43;16.20;;;11.20;;
29196;SDS011;62796;42.654;23.316;2022-09-09T02:50:54;17.83;;;11.95;;
29196;SDS011;62796;42.654;23.316;2022-09-09T02:56:36;16.70;;;12.38;;
29196;SDS011;62796;42.654;23.316;2022-09-09T02:59:06;15.27;;;12.07;;
29196;SDS011;62796;42.654;23.316;2022-09-09T03:01:32;18.08;;;12.05;;
29196;SDS011;62796;42.654;23.316;2022-09-09T03:03:58;18.10;;;12.48;;
29196;SDS011;62796;42.654;23.316;2022-09-09T03:06:23;17.27;;;12.23;;
29196;SDS011;62796;42.654;23.316;2022-09-09T03:08:49;17.92;;;13.18;;
29196;SDS011;62796;42.654;23.316;2022-09-09T03:11:15;17.25;;;12.75;;
29196;SDS011;62796;42.654;23.316;2022-09-09T03:13:41;17.85;;;13.20;;
29196;SDS011;62796;42.654;23.316;2022-09-09T03:16:06;19.33;;;12.80;;
29196;SDS011;62796;42.654;23.316;2022-09-09T03:18:32;15.30;;;11.80;;
29196;SDS011;62796;42.654;23.316;2022-09-09T03:20:57;25.35;;;13.30;;
29196;SDS011;62796;42.654;23.316;2022-09-09T03:23:24;19.13;;;13.60;;
29196;SDS011;62796;42.654;23.316;2022-09-09T03:25:50;17.33;;;12.98;;
29196;SDS011;62796;42.654;23.316;2022-09-09T03:28:17;22.45;;;13.38;;
29196;SDS011;62796;42.654;23.316;2022-09-09T03:30:43;17.25;;;12.75;;
29196;SDS011;62796;42.654;23.316;2022-09-09T03:33:08;20.80;;;13.10;;
29196;SDS011;62796;42.654;23.316;2022-09-09T03:35:33;21.85;;;13.90;;
29196;SDS011;62796;42.654;23.316;2022-09-09T03:37:59;20.25;;;13.40;;
29196;SDS011;62796;42.654;23.316;2022-09-09T03:40:25;23.95;;;13.88;;
29196;SDS011;62796;42.654;23.316;2022-09-09T03:42:51;18.65;;;13.75;;
29196;SDS011;62796;42.654;23.316;2022-09-09T03:45:16;19.90;;;13.73;;
29196;SDS011;62796;42.654;23.316;2022-09-09T03:47:42;19.08;;;14.05;;
29196;SDS011;62796;42.654;23.316;2022-09-09T03:50:07;17.30;;;13.07;;
29196;SDS011;62796;42.654;23.316;2022-09-09T03:52:39;19.55;;;13.05;;
29196;SDS011;62796;42.654;23.316;2022-09-09T03:55:07;19.70;;;12.88;;
29196;SDS011;62796;42.654;23.316;2022-09-09T03:57:33;17.30;;;13.90;;
29196;SDS011;62796;42.654;23.316;2022-09-09T04:00:01;18.60;;;13.15;;
29196;SDS011;62796;42.654;23.316;2022-09-09T04:02:30;16.75;;;12.85;;
29196;SDS011;62796;42.654;23.316;2022-09-09T04:04:56;15.73;;;13.13;;
29196;SDS011;62796;42.654;23.316;2022-09-09T04:07:21;18.20;;;13.25;;
29196;SDS011;62796;42.654;23.316;2022-09-09T04:09:47;19.95;;;13.80;;
29196;SDS011;62796;42.654;23.316;2022-09-09T04:12:13;16.73;;;12.88;;
29196;SDS011;62796;42.654;23.316;2022-09-09T04:14:38;16.00;;;13.18;;
29196;SDS011;62796;42.654;23.316;2022-09-09T04:17:03;14.80;;;12.48;;
29196;SDS011;62796;42.654;23.316;2022-09-09T04:19:31;15.52;;;12.60;;
29196;SDS011;62796;42.654;23.316;2022-09-09T04:21:57;21.98;;;13.80;;
29196;SDS011;62796;42.654;23.316;2022-09-09T04:24:22;15.98;;;13.13;;
29196;SDS011;62796;42.654;23.316;2022-09-09T04:26:47;20.40;;;13.60;;
29196;SDS011;62796;42.654;23.316;2022-09-09T04:29:14;21.55;;;13.85;;
29196;SDS011;62796;42.654;23.316;2022-09-09T04:31:39;24.25;;;14.00;;
29196;SDS011;62796;42.654;23.316;2022-09-09T04:34:07;23.98;;;13.25;;
29196;SDS011;62796;42.654;23.316;2022-09-09T04:36:34;24.55;;;13.32;;
29196;SDS011;62796;42.654;23.316;2022-09-09T04:39:00;22.17;;;14.52;;
29196;SDS011;62796;42.654;23.316;2022-09-09T04:41:26;37.10;;;16.40;;
29196;SDS011;62796;42.654;23.316;2022-09-09T04:43:52;25.85;;;13.82;;
29196;SDS011;62796;42.654;23.316;2022-09-09T04:46:19;27.55;;;15.07;;
29196;SDS011;62796;42.654;23.316;2022-09-09T04:48:45;32.70;;;17.15;;
29196;SDS011;62796;42.654;23.316;2022-09-09T04:51:11;30.73;;;15.30;;
29196;SDS011;62796;42.654;23.316;2022-09-09T04:53:38;24.55;;;14.77;;
29196;SDS011;62796;42.654;23.316;2022-09-09T04:56:05;29.05;;;16.00;;
29196;SDS011;62796;42.654;23.316;2022-09-09T04:58:31;28.17;;;15.57;;
29196;SDS011;62796;42.654;23.316;2022-09-09T05:01:10;28.52;;;15.30;;
29196;SDS011;62796;42.654;23.316;2022-09-09T05:03:36;17.17;;;13.55;;
29196;SDS011;62796;42.654;23.316;2022-09-09T05:06:09;18.23;;;14.35;;
29196;SDS011;62796;42.654;23.316;2022-09-09T05:08:39;21.33;;;14.23;;
29196;SDS011;62796;42.654;23.316;2022-09-09T05:11:16;20.95;;;15.48;;
29196;SDS011;62796;42.654;23.316;2022-09-09T05:13:43;20.98;;;14.40;;
29196;SDS011;62796;42.654;23.316;2022-09-09T05:16:09;18.45;;;15.27;;
29196;SDS011;62796;42.654;23.316;2022-09-09T05:18:36;16.83;;;14.05;;
29196;SDS011;62796;42.654;23.316;2022-09-09T05:21:05;18.10;;;14.57;;
29196;SDS011;62796;42.654;23.316;2022-09-09T05:23:31;27.65;;;14.65;;
29196;SDS011;62796;42.654;23.316;2022-09-09T05:25:59;25.83;;;16.70;;
29196;SDS011;62796;42.654;23.316;2022-09-09T05:28:25;31.52;;;17.52;;
29196;SDS011;62796;42.654;23.316;2022-09-09T05:30:55;46.28;;;19.45;;
29196;SDS011;62796;42.654;23.316;2022-09-09T05:33:33;41.92;;;17.60;;
29196;SDS011;62796;42.654;23.316;2022-09-09T05:36:03;36.25;;;15.88;;
29196;SDS011;62796;42.654;23.316;2022-09-09T05:38:32;29.42;;;16.27;;
29196;SDS011;62796;42.654;23.316;2022-09-09T05:40:59;26.55;;;15.68;;
29196;SDS011;62796;42.654;23.316;2022-09-09T05:43:25;28.90;;;15.32;;
29196;SDS011;62796;42.654;23.316;2022-09-09T05:46:11;30.67;;;14.57;;
29196;SDS011;62796;42.654;23.316;2022-09-09T05:48:39;32.72;;;15.15;;
29196;SDS011;62796;42.654;23.316;2022-09-09T05:51:06;78.30;;;20.75;;
29196;SDS011;62796;42.654;23.316;2022-09-09T05:53:34;27.13;;;14.55;;
29196;SDS011;62796;42.654;23.316;2022-09-09T05:56:01;21.08;;;12.85;;
29196;SDS011;62796;42.654;23.316;2022-09-09T05:58:32;28.13;;;14.27;;
29196;SDS011;62796;42.654;23.316;2022-09-09T06:03:31;18.00;;;13.27;;
29196;SDS011;62796;42.654;23.316;2022-09-09T06:06:06;18.52;;;12.43;;
29196;SDS011;62796;42.654;23.316;2022-09-09T06:08:33;24.60;;;11.98;;
29196;SDS011;62796;42.654;23.316;2022-09-09T06:11:12;21.52;;;13.48;;
29196;SDS011;62796;42.654;23.316;2022-09-09T06:13:40;24.10;;;12.05;;
29196;SDS011;62796;42.654;23.316;2022-09-09T06:16:10;18.08;;;11.27;;
29196;SDS011;62796;42.654;23.316;2022-09-09T06:18:40;14.82;;;10.75;;
29196;SDS011;62796;42.654;23.316;2022-09-09T06:21:08;27.27;;;13.52;;
29196;SDS011;62796;42.654;23.316;2022-09-09T06:23:40;19.67;;;12.90;;
29196;SDS011;62796;42.654;23.316;2022-09-09T06:26:12;26.42;;;12.73;;
29196;SDS011;62796;42.654;23.316;2022-09-09T06:28:43;20.63;;;13.25;;
29196;SDS011;62796;42.654;23.316;2022-09-09T06:31:10;24.17;;;12.82;;
29196;SDS011;62796;42.654;23.316;2022-09-09T06:33:37;23.92;;;11.18;;
29196;SDS011;62796;42.654;23.316;2022-09-09T06:36:16;17.60;;;10.98;;
29196;SDS011;62796;42.654;23.316;2022-09-09T06:38:44;13.15;;;10.10;;
29196;SDS011;62796;42.654;23.316;2022-09-09T06:41:10;19.73;;;9.85;;
29196;SDS011;62796;42.654;23.316;2022-09-09T06:43:37;15.65;;;9.10;;
29196;SDS011;62796;42.654;23.316;2022-09-09T06:46:10;18.20;;;9.43;;
29196;SDS011;62796;42.654;23.316;2022-09-09T06:48:36;19.70;;;9.03;;
29196;SDS011;62796;42.654;23.316;2022-09-09T06:51:05;19.92;;;9.70;;
29196;SDS011;62796;42.654;23.316;2022-09-09T06:53:34;20.10;;;10.60;;
29196;SDS011;62796;42.654;23.316;2022-09-09T06:56:01;13.70;;;8.38;;
29196;SDS011;62796;42.654;23.316;2022-09-09T06:58:28;18.35;;;9.80;;
29196;SDS011;62796;42.654;23.316;2022-09-09T07:01:03;22.95;;;9.95;;
29196;SDS011;62796;42.654;23.316;2022-09-09T07:03:30;18.63;;;9.98;;
29196;SDS011;62796;42.654;23.316;2022-09-09T07:05:56;19.10;;;10.20;;
29196;SDS011;62796;42.654;23.316;2022-09-09T07:08:22;22.48;;;9.75;;
29196;SDS011;62796;42.654;23.316;2022-09-09T07:10:48;16.58;;;9.32;;
29196;SDS011;62796;42.654;23.316;2022-09-09T07:13:14;15.38;;;9.57;;
29196;SDS011;62796;42.654;23.316;2022-09-09T07:15:40;17.35;;;9.32;;
29196;SDS011;62796;42.654;23.316;2022-09-09T07:18:06;12.98;;;9.02;;
29196;SDS011;62796;42.654;23.316;2022-09-09T07:20:32;13.50;;;8.52;;
29196;SDS011;62796;42.654;23.316;2022-09-09T07:22:57;11.70;;;8.13;;
29196;SDS011;62796;42.654;23.316;2022-09-09T07:25:24;17.20;;;8.25;;
29196;SDS011;62796;42.654;23.316;2022-09-09T07:27:53;13.18;;;8.38;;
29196;SDS011;62796;42.654;23.316;2022-09-09T07:30:19;12.93;;;7.93;;
29196;SDS011;62796;42.654;23.316;2022-09-09T07:32:45;13.63;;;8.60;;
29196;SDS011;62796;42.654;23.316;2022-09-09T07:35:11;13.85;;;8.25;;
29196;SDS011;62796;42.654;23.316;2022-09-09T07:37:37;12.10;;;8.40;;
29196;SDS011;62796;42.654;23.316;2022-09-09T07:40:03;13.52;;;8.25;;
29196;SDS011;62796;42.654;23.316;2022-09-09T07:42:29;13.57;;;7.72;;
29196;SDS011;62796;42.654;23.316;2022-09-09T07:44:55;12.18;;;7.93;;
29196;SDS011;62796;42.654;23.316;2022-09-09T07:47:20;12.88;;;8.27;;
29196;SDS011;62796;42.654;23.316;2022-09-09T07:49:46;16.25;;;7.88;;
29196;SDS011;62796;42.654;23.316;2022-09-09T07:52:12;16.25;;;8.75;;
29196;SDS011;62796;42.654;23.316;2022-09-09T07:54:37;17.52;;;8.55;;
29196;SDS011;62796;42.654;23.316;2022-09-09T07:57:03;14.23;;;8.35;;
29196;SDS011;62796;42.654;23.316;2022-09-09T07:59:29;16.88;;;8.75;;
29196;SDS011;62796;42.654;23.316;2022-09-09T08:01:55;15.85;;;9.07;;
29196;SDS011;62796;42.654;23.316;2022-09-09T08:04:21;20.77;;;9.73;;
29196;SDS011;62796;42.654;23.316;2022-09-09T08:06:49;15.88;;;9.18;;
29196;SDS011;62796;42.654;23.316;2022-09-09T08:09:18;23.63;;;9.77;;
29196;SDS011;62796;42.654;23.316;2022-09-09T08:11:43;13.15;;;8.38;;
29196;SDS011;62796;42.654;23.316;2022-09-09T08:14:10;14.93;;;7.50;;
29196;SDS011;62796;42.654;23.316;2022-09-09T08:16:37;15.02;;;8.00;;
29196;SDS011;62796;42.654;23.316;2022-09-09T08:19:05;13.48;;;7.55;;
29196;SDS011;62796;42.654;23.316;2022-09-09T08:21:32;12.90;;;7.90;;
29196;SDS011;62796;42.654;23.316;2022-09-09T08:24:00;18.27;;;7.80;;
29196;SDS011;62796;42.654;23.316;2022-09-09T08:26:33;23.67;;;9.02;;
29196;SDS011;62796;42.654;23.316;2022-09-09T08:29:01;17.05;;;8.32;;
29196;SDS011;62796;42.654;23.316;2022-09-09T08:31:29;14.63;;;7.72;;
29196;SDS011;62796;42.654;23.316;2022-09-09T08:33:58;14.57;;;7.53;;
29196;SDS011;62796;42.654;23.316;2022-09-09T08:36:25;12.57;;;7.63;;
29196;SDS011;62796;42.654;23.316;2022-09-09T08:38:53;9.80;;;7.53;;
29196;SDS011;62796;42.654;23.316;2022-09-09T08:47:15;9.82;;;7.10;;
29196;SDS011;62796;42.654;23.316;2022-09-09T08:52:42;10.43;;;6.72;;
29196;SDS011;62796;42.654;23.316;2022-09-09T08:55:35;9.60;;;6.88;;
29196;SDS011;62796;42.654;23.316;2022-09-09T08:58:25;9.00;;;6.55;;
29196;SDS011;62796;42.654;23.316;2022-09-09T09:03:45;13.93;;;6.70;;
29196;SDS011;62796;42.654;23.316;2022-09-09T09:06:26;13.82;;;6.68;;
29196;SDS011;62796;42.654;23.316;2022-09-09T09:11:40;10.48;;;7.20;;
29196;SDS011;62796;42.654;23.316;2022-09-09T09:14:21;15.80;;;9.30;;
29196;SDS011;62796;42.654;23.316;2022-09-09T09:19:28;16.10;;;6.75;;
29196;SDS011;62796;42.654;23.316;2022-09-09T09:25:02;12.40;;;7.28;;
29196;SDS011;62796;42.654;23.316;2022-09-09T09:27:38;8.07;;;6.25;;
29196;SDS011;62796;42.654;23.316;2022-09-09T09:30:40;9.10;;;6.43;;
29196;SDS011;62796;42.654;23.316;2022-09-09T09:35:45;11.55;;;6.90;;
29196;SDS011;62796;42.654;23.316;2022-09-09T09:38:21;12.95;;;6.15;;
29196;SDS011;62796;42.654;23.316;2022-09-09T09:40:50;8.60;;;6.30;;
29196;SDS011;62796;42.654;23.316;2022-09-09T09:43:32;8.80;;;6.30;;
29196;SDS011;62796;42.654;23.316;2022-09-09T09:45:59;10.60;;;6.50;;
29196;SDS011;62796;42.654;23.316;2022-09-09T09:48:26;12.27;;;6.65;;
29196;SDS011;62796;42.654;23.316;2022-09-09T09:51:11;12.25;;;7.40;;
29196;SDS011;62796;42.654;23.316;2022-09-09T09:53:40;9.32;;;6.57;;
29196;SDS011;62796;42.654;23.316;2022-09-09T09:56:11;9.32;;;6.38;;
29196;SDS011;62796;42.654;23.316;2022-09-09T10:01:27;7.65;;;6.40;;
29196;SDS011;62796;42.654;23.316;2022-09-09T10:03:57;8.07;;;6.20;;
29196;SDS011;62796;42.654;23.316;2022-09-09T10:06:31;8.73;;;6.28;;
29196;SDS011;62796;42.654;23.316;2022-09-09T10:09:01;9.32;;;6.13;;
29196;SDS011;62796;42.654;23.316;2022-09-09T10:11:47;17.95;;;6.82;;
29196;SDS011;62796;42.654;23.316;2022-09-09T10:14:21;15.05;;;6.47;;
29196;SDS011;62796;42.654;23.316;2022-09-09T10:19:36;12.73;;;6.95;;
29196;SDS011;62796;42.654;23.316;2022-09-09T10:30:18;14.65;;;7.18;;
29196;SDS011;62796;42.654;23.316;2022-09-09T10:32:48;14.15;;;7.40;;
29196;SDS011;62796;42.654;23.316;2022-09-09T10:38:08;15.90;;;8.48;;
29196;SDS011;62796;42.654;23.316;2022-09-09T10:43:52;11.77;;;8.05;;
29196;SDS011;62796;42.654;23.316;2022-09-09T10:46:16;10.90;;;8.02;;
29196;SDS011;62796;42.654;23.316;2022-09-09T10:55:08;18.42;;;9.63;;
29196;SDS011;62796;42.654;23.316;2022-09-09T10:57:43;24.88;;;9.20;;
29196;SDS011;62796;42.654;23.316;2022-09-09T11:02:49;21.65;;;8.70;;
29196;SDS011;62796;42.654;23.316;2022-09-09T11:08:02;21.45;;;8.48;;
29196;SDS011;62796;42.654;23.316;2022-09-09T11:10:49;11.98;;;7.68;;
29196;SDS011;62796;42.654;23.316;2022-09-09T11:13:24;19.83;;;8.05;;
29196;SDS011;62796;42.654;23.316;2022-09-09T11:16:15;11.43;;;8.30;;
29196;SDS011;62796;42.654;23.316;2022-09-09T11:18:48;15.00;;;7.82;;
29196;SDS011;62796;42.654;23.316;2022-09-09T11:21:19;18.65;;;9.05;;
29196;SDS011;62796;42.654;23.316;2022-09-09T11:23:55;15.70;;;7.88;;
29196;SDS011;62796;42.654;23.316;2022-09-09T11:26:37;15.93;;;9.13;;
29196;SDS011;62796;42.654;23.316;2022-09-09T11:29:21;15.70;;;8.95;;
29196;SDS011;62796;42.654;23.316;2022-09-09T11:37:39;22.08;;;10.32;;
29196;SDS011;62796;42.654;23.316;2022-09-09T11:40:14;14.93;;;8.63;;
29196;SDS011;62796;42.654;23.316;2022-09-09T11:42:45;20.83;;;8.80;;
29196;SDS011;62796;42.654;23.316;2022-09-09T11:45:22;15.35;;;9.88;;
29196;SDS011;62796;42.654;23.316;2022-09-09T11:47:58;16.25;;;9.30;;
29196;SDS011;62796;42.654;23.316;2022-09-09T11:52:50;12.23;;;8.75;;
29196;SDS011;62796;42.654;23.316;2022-09-09T11:55:29;18.08;;;8.82;;
29196;SDS011;62796;42.654;23.316;2022-09-09T11:58:03;19.67;;;9.35;;
29196;SDS011;62796;42.654;23.316;2022-09-09T12:06:14;20.60;;;8.82;;
29196;SDS011;62796;42.654;23.316;2022-09-09T12:08:46;24.33;;;9.93;;
29196;SDS011;62796;42.654;23.316;2022-09-09T12:11:29;20.38;;;8.85;;
29196;SDS011;62796;42.654;23.316;2022-09-09T12:13:56;15.60;;;8.60;;
29196;SDS011;62796;42.654;23.316;2022-09-09T12:16:29;16.15;;;9.93;;
29196;SDS011;62796;42.654;23.316;2022-09-09T12:19:07;16.00;;;8.80;;
29196;SDS011;62796;42.654;23.316;2022-09-09T12:24:19;21.45;;;8.90;;
29196;SDS011;62796;42.654;23.316;2022-09-09T12:27:07;15.88;;;8.90;;
29196;SDS011;62796;42.654;23.316;2022-09-09T12:29:49;18.20;;;8.90;;
29196;SDS011;62796;42.654;23.316;2022-09-09T12:32:24;20.27;;;8.23;;
29196;SDS011;62796;42.654;23.316;2022-09-09T12:37:34;12.07;;;7.93;;
29196;SDS011;62796;42.654;23.316;2022-09-09T12:40:04;13.32;;;7.82;;
29196;SDS011;62796;42.654;23.316;2022-09-09T12:42:40;14.93;;;7.97;;
29196;SDS011;62796;42.654;23.316;2022-09-09T12:45:14;15.90;;;9.23;;
29196;SDS011;62796;42.654;23.316;2022-09-09T12:47:52;15.18;;;8.23;;
29196;SDS011;62796;42.654;23.316;2022-09-09T12:50:22;15.50;;;8.68;;
29196;SDS011;62796;42.654;23.316;2022-09-09T12:52:52;19.23;;;8.60;;
29196;SDS011;62796;42.654;23.316;2022-09-09T12:55:30;16.17;;;8.93;;
29196;SDS011;62796;42.654;23.316;2022-09-09T12:57:58;17.13;;;8.40;;
29196;SDS011;62796;42.654;23.316;2022-09-09T13:00:26;17.42;;;8.20;;
29196;SDS011;62796;42.654;23.316;2022-09-09T13:02:58;17.23;;;8.48;;
29196;SDS011;62796;42.654;23.316;2022-09-09T13:05:35;17.08;;;8.95;;
29196;SDS011;62796;42.654;23.316;2022-09-09T13:08:11;20.50;;;9.10;;
29196;SDS011;62796;42.654;23.316;2022-09-09T13:13:04;18.75;;;8.73;;
29196;SDS011;62796;42.654;23.316;2022-09-09T13:15:38;15.75;;;8.85;;
29196;SDS011;62796;42.654;23.316;2022-09-09T13:18:05;17.30;;;8.65;;
29196;SDS011;62796;42.654;23.316;2022-09-09T13:23:03;16.27;;;9.63;;
29196;SDS011;62796;42.654;23.316;2022-09-09T13:25:28;14.93;;;9.13;;
29196;SDS011;62796;42.654;23.316;2022-09-09T13:28:04;17.08;;;12.75;;
29196;SDS011;62796;42.654;23.316;2022-09-09T13:35:45;15.57;;;9.52;;
29196;SDS011;62796;42.654;23.316;2022-09-09T13:38:14;18.45;;;9.32;;
29196;SDS011;62796;42.654;23.316;2022-09-09T13:40:40;22.25;;;10.20;;
29196;SDS011;62796;42.654;23.316;2022-09-09T13:43:20;17.88;;;9.25;;
29196;SDS011;62796;42.654;23.316;2022-09-09T13:46:04;21.55;;;9.52;;
29196;SDS011;62796;42.654;23.316;2022-09-09T13:49:22;25.40;;;9.65;;
29196;SDS011;62796;42.654;23.316;2022-09-09T13:51:42;14.77;;;10.00;;
29196;SDS011;62796;42.654;23.316;2022-09-09T13:54:15;15.32;;;9.57;;
29196;SDS011;62796;42.654;23.316;2022-09-09T13:56:43;16.70;;;9.40;;
29196;SDS011;62796;42.654;23.316;2022-09-09T13:59:11;17.08;;;9.80;;
29196;SDS011;62796;42.654;23.316;2022-09-09T14:01:38;13.57;;;9.40;;
29196;SDS011;62796;42.654;23.316;2022-09-09T14:04:04;17.13;;;9.45;;
29196;SDS011;62796;42.654;23.316;2022-09-09T14:06:32;15.35;;;9.10;;
29196;SDS011;62796;42.654;23.316;2022-09-09T14:09:02;15.40;;;9.38;;
29196;SDS011;62796;42.654;23.316;2022-09-09T14:11:27;19.95;;;9.05;;
29196;SDS011;62796;42.654;23.316;2022-09-09T14:13:53;12.90;;;8.75;;
29196;SDS011;62796;42.654;23.316;2022-09-09T14:16:18;18.23;;;9.43;;
29196;SDS011;62796;42.654;23.316;2022-09-09T14:18:45;17.20;;;8.98;;
29196;SDS011;62796;42.654;23.316;2022-09-09T14:21:11;16.40;;;9.32;;
29196;SDS011;62796;42.654;23.316;2022-09-09T14:23:37;15.70;;;9.32;;
29196;SDS011;62796;42.654;23.316;2022-09-09T14:26:03;13.25;;;9.30;;
29196;SDS011;62796;42.654;23.316;2022-09-09T14:28:32;20.63;;;8.70;;
29196;SDS011;62796;42.654;23.316;2022-09-09T14:31:01;21.15;;;9.45;;
29196;SDS011;62796;42.654;23.316;2022-09-09T14:33:28;15.75;;;8.57;;
29196;SDS011;62796;42.654;23.316;2022-09-09T14:35:58;16.17;;;8.35;;
29196;SDS011;62796;42.654;23.316;2022-09-09T14:38:25;14.57;;;8.93;;
29196;SDS011;62796;42.654;23.316;2022-09-09T14:40:50;13.93;;;7.78;;
29196;SDS011;62796;42.654;23.316;2022-09-09T14:43:16;16.15;;;9.23;;
29196;SDS011;62796;42.654;23.316;2022-09-09T14:45:41;14.70;;;8.07;;
29196;SDS011;62796;42.654;23.316;2022-09-09T14:48:08;15.48;;;8.35;;
29196;SDS011;62796;42.654;23.316;2022-09-09T14:50:33;16.95;;;8.05;;
29196;SDS011;62796;42.654;23.316;2022-09-09T14:53:01;17.42;;;8.18;;
29196;SDS011;62796;42.654;23.316;2022-09-09T14:55:27;15.68;;;8.55;;
29196;SDS011;62796;42.654;23.316;2022-09-09T14:57:54;14.40;;;7.85;;
29196;SDS011;62796;42.654;23.316;2022-09-09T15:00:19;13.73;;;8.02;;
29196;SDS011;62796;42.654;23.316;2022-09-09T15:02:45;18.60;;;8.38;;
29196;SDS011;62796;42.654;23.316;2022-09-09T15:05:10;12.60;;;7.82;;
29196;SDS011;62796;42.654;23.316;2022-09-09T15:07:36;17.40;;;8.20;;
29196;SDS011;62796;42.654;23.316;2022-09-09T15:10:02;13.65;;;8.32;;
29196;SDS011;62796;42.654;23.316;2022-09-09T15:12:28;14.25;;;8.05;;
29196;SDS011;62796;42.654;23.316;2022-09-09T15:14:53;13.48;;;7.72;;
29196;SDS011;62796;42.654;23.316;2022-09-09T15:17:19;14.63;;;8.45;;
29196;SDS011;62796;42.654;23.316;2022-09-09T15:19:45;12.73;;;8.05;;
29196;SDS011;62796;42.654;23.316;2022-09-09T15:22:11;13.23;;;8.25;;
29196;SDS011;62796;42.654;23.316;2022-09-09T15:24:36;17.40;;;8.70;;
29196;SDS011;62796;42.654;23.316;2022-09-09T15:27:02;16.60;;;8.13;;
29196;SDS011;62796;42.654;23.316;2022-09-09T15:29:27;14.00;;;8.95;;
29196;SDS011;62796;42.654;23.316;2022-09-09T15:31:53;15.23;;;8.48;;
29196;SDS011;62796;42.654;23.316;2022-09-09T15:34:20;18.63;;;8.73;;
29196;SDS011;62796;42.654;23.316;2022-09-09T15:36:46;16.52;;;9.15;;
29196;SDS011;62796;42.654;23.316;2022-09-09T15:39:12;18.70;;;8.88;;
29196;SDS011;62796;42.654;23.316;2022-09-09T15:41:42;18.25;;;8.55;;
29196;SDS011;62796;42.654;23.316;2022-09-09T15:44:12;10.65;;;8.00;;
29196;SDS011;62796;42.654;23.316;2022-09-09T15:46:38;27.13;;;13.93;;
29196;SDS011;62796;42.654;23.316;2022-09-09T15:52:01;20.90;;;9.68;;
29196;SDS011;62796;42.654;23.316;2022-09-09T15:54:28;16.27;;;9.23;;
29196;SDS011;62796;42.654;23.316;2022-09-09T15:56:58;20.00;;;10.32;;
29196;SDS011;62796;42.654;23.316;2022-09-09T15:59:27;16.83;;;11.48;;
29196;SDS011;62796;42.654;23.316;2022-09-09T16:01:53;14.35;;;8.88;;
29196;SDS011;62796;42.654;23.316;2022-09-09T16:04:20;19.15;;;9.95;;
29196;SDS011;62796;42.654;23.316;2022-09-09T16:06:50;17.42;;;8.75;;
29196;SDS011;62796;42.654;23.316;2022-09-09T16:09:19;15.05;;;8.90;;
29196;SDS011;62796;42.654;23.316;2022-09-09T16:11:46;18.80;;;9.82;;
29196;SDS011;62796;42.654;23.316;2022-09-09T16:14:12;19.27;;;9.13;;
29196;SDS011;62796;42.654;23.316;2022-09-09T16:16:40;16.73;;;9.90;;
29196;SDS011;62796;42.654;23.316;2022-09-09T16:19:07;22.58;;;10.05;;
29196;SDS011;62796;42.654;23.316;2022-09-09T16:21:38;23.95;;;10.20;;
29196;SDS011;62796;42.654;23.316;2022-09-09T16:24:07;25.92;;;10.10;;
29196;SDS011;62796;42.654;23.316;2022-09-09T16:26:35;20.73;;;10.80;;
29196;SDS011;62796;42.654;23.316;2022-09-09T16:29:02;24.35;;;10.52;;
29196;SDS011;62796;42.654;23.316;2022-09-09T16:31:29;23.55;;;11.75;;
29196;SDS011;62796;42.654;23.316;2022-09-09T16:33:55;21.30;;;11.02;;
29196;SDS011;62796;42.654;23.316;2022-09-09T16:36:25;20.13;;;10.55;;
29196;SDS011;62796;42.654;23.316;2022-09-09T16:38:59;32.63;;;12.10;;
29196;SDS011;62796;42.654;23.316;2022-09-09T16:41:26;21.17;;;11.73;;
29196;SDS011;62796;42.654;23.316;2022-09-09T16:43:54;28.73;;;12.48;;
29196;SDS011;62796;42.654;23.316;2022-09-09T16:46:20;20.35;;;11.70;;
29196;SDS011;62796;42.654;23.316;2022-09-09T16:48:47;24.45;;;10.48;;
29196;SDS011;62796;42.654;23.316;2022-09-09T16:51:16;20.60;;;10.48;;